sensor_id;sensor_type;location;lat;lon;timestamp;temperature;humidity
70928;SHT31;58587;53.034;18.576;2022-10-31T00:00:58;11.15;94.17
70928;SHT31;58587;53.034;18.576;2022-10-31T00:03:23;11.14;94.33
70928;SHT31;58587;53.034;18.576;2022-10-31T00:05:49;11.16;94.13
70928;SHT31;58587;53.034;18.576;2022-10-31T00:08:16;11.18;94.09
70928;SHT31;58587;53.034;18.576;2022-10-31T00:10:42;11.18;94.18
70928;SHT31;58587;53.034;18.576;2022-10-31T00:13:09;11.15;94.03
70928;SHT31;58587;53.034;18.576;2022-10-31T00:15:36;11.18;94.21
70928;SHT31;58587;53.034;18.576;2022-10-31T00:18:02;11.14;94.42
70928;SHT31;58587;53.034;18.576;2022-10-31T00:20:28;11.12;94.16
70928;SHT31;58587;53.034;18.576;2022-10-31T00:22:53;11.12;94.16
70928;SHT31;58587;53.034;18.576;2022-10-31T00:25:18;11.11;93.96
70928;SHT31;58587;53.034;18.576;2022-10-31T00:27:45;11.09;94.27
70928;SHT31;58587;53.034;18.576;2022-10-31T00:30:11;11.08;94.23
70928;SHT31;58587;53.034;18.576;2022-10-31T00:32:36;11.08;94.05
70928;SHT31;58587;53.034;18.576;2022-10-31T00:35:01;11.08;94.00
70928;SHT31;58587;53.034;18.576;2022-10-31T00:37:27;11.09;94.00
70928;SHT31;58587;53.034;18.576;2022-10-31T00:39:52;11.06;94.23
70928;SHT31;58587;53.034;18.576;2022-10-31T00:42:17;11.11;94.08
70928;SHT31;58587;53.034;18.576;2022-10-31T00:44:43;11.06;94.18
70928;SHT31;58587;53.034;18.576;2022-10-31T00:47:08;11.06;94.10
70928;SHT31;58587;53.034;18.576;2022-10-31T00:49:33;11.09;93.99
70928;SHT31;58587;53.034;18.576;2022-10-31T00:51:59;11.09;94.05
70928;SHT31;58587;53.034;18.576;2022-10-31T00:54:24;11.08;94.05
70928;SHT31;58587;53.034;18.576;2022-10-31T00:56:49;11.09;94.00
70928;SHT31;58587;53.034;18.576;2022-10-31T00:59:15;11.05;94.27
70928;SHT31;58587;53.034;18.576;2022-10-31T01:01:40;11.04;94.44
70928;SHT31;58587;53.034;18.576;2022-10-31T01:04:05;11.04;93.97
70928;SHT31;58587;53.034;18.576;2022-10-31T01:06:31;11.04;94.18
70928;SHT31;58587;53.034;18.576;2022-10-31T01:08:56;11.02;94.28
70928;SHT31;58587;53.034;18.576;2022-10-31T01:11:23;10.98;94.52
70928;SHT31;58587;53.034;18.576;2022-10-31T01:13:53;10.99;94.29
70928;SHT31;58587;53.034;18.576;2022-10-31T01:16:21;11.01;94.25
70928;SHT31;58587;53.034;18.576;2022-10-31T01:18:47;10.98;94.13
70928;SHT31;58587;53.034;18.576;2022-10-31T01:21:18;10.98;94.38
70928;SHT31;58587;53.034;18.576;2022-10-31T01:23:45;11.01;94.11
70928;SHT31;58587;53.034;18.576;2022-10-31T01:26:16;10.96;94.28
70928;SHT31;58587;53.034;18.576;2022-10-31T01:28:50;10.92;94.85
70928;SHT31;58587;53.034;18.576;2022-10-31T01:31:17;10.84;95.18
70928;SHT31;58587;53.034;18.576;2022-10-31T01:33:43;10.84;95.43
70928;SHT31;58587;53.034;18.576;2022-10-31T01:36:33;10.85;95.33
70928;SHT31;58587;53.034;18.576;2022-10-31T01:39:04;10.85;95.28
70928;SHT31;58587;53.034;18.576;2022-10-31T01:41:31;10.82;95.11
70928;SHT31;58587;53.034;18.576;2022-10-31T01:44:00;10.84;95.19
70928;SHT31;58587;53.034;18.576;2022-10-31T01:46:33;10.82;95.13
70928;SHT31;58587;53.034;18.576;2022-10-31T01:49:02;10.81;95.03
70928;SHT31;58587;53.034;18.576;2022-10-31T01:51:33;10.84;94.97
70928;SHT31;58587;53.034;18.576;2022-10-31T01:54:03;10.81;95.01
70928;SHT31;58587;53.034;18.576;2022-10-31T01:56:30;10.79;94.93
70928;SHT31;58587;53.034;18.576;2022-10-31T01:58:58;10.84;94.92
70928;SHT31;58587;53.034;18.576;2022-10-31T02:01:25;10.78;94.83
70928;SHT31;58587;53.034;18.576;2022-10-31T02:03:50;10.75;95.05
70928;SHT31;58587;53.034;18.576;2022-10-31T02:07:10;10.69;94.78
70928;SHT31;58587;53.034;18.576;2022-10-31T02:09:12;10.68;95.17
70928;SHT31;58587;53.034;18.576;2022-10-31T02:11:38;10.68;95.24
70928;SHT31;58587;53.034;18.576;2022-10-31T02:14:04;10.61;95.16
70928;SHT31;58587;53.034;18.576;2022-10-31T02:16:29;10.57;95.19
70928;SHT31;58587;53.034;18.576;2022-10-31T02:18:55;10.57;95.60
70928;SHT31;58587;53.034;18.576;2022-10-31T02:21:47;10.57;95.48
70928;SHT31;58587;53.034;18.576;2022-10-31T02:30:07;10.55;95.04
70928;SHT31;58587;53.034;18.576;2022-10-31T02:32:43;10.60;95.22
70928;SHT31;58587;53.034;18.576;2022-10-31T02:35:17;10.61;94.97
70928;SHT31;58587;53.034;18.576;2022-10-31T02:40:59;10.54;94.70
70928;SHT31;58587;53.034;18.576;2022-10-31T02:46:25;10.58;95.49
70928;SHT31;58587;53.034;18.576;2022-10-31T02:48:54;10.55;95.40
70928;SHT31;58587;53.034;18.576;2022-10-31T02:51:23;10.55;95.38
70928;SHT31;58587;53.034;18.576;2022-10-31T02:53:48;10.57;95.60
70928;SHT31;58587;53.034;18.576;2022-10-31T02:56:18;10.57;95.70
70928;SHT31;58587;53.034;18.576;2022-10-31T02:58:56;10.60;95.80
70928;SHT31;58587;53.034;18.576;2022-10-31T03:01:33;10.61;95.76
70928;SHT31;58587;53.034;18.576;2022-10-31T03:07:08;10.61;95.95
70928;SHT31;58587;53.034;18.576;2022-10-31T03:10:03;10.63;96.03
70928;SHT31;58587;53.034;18.576;2022-10-31T03:17:37;10.69;96.08
70928;SHT31;58587;53.034;18.576;2022-10-31T03:20:06;10.69;95.86
70928;SHT31;58587;53.034;18.576;2022-10-31T03:22:35;10.72;96.23
70928;SHT31;58587;53.034;18.576;2022-10-31T03:25:02;10.72;96.04
70928;SHT31;58587;53.034;18.576;2022-10-31T03:27:32;10.75;95.89
70928;SHT31;58587;53.034;18.576;2022-10-31T03:30:02;10.78;95.81
70928;SHT31;58587;53.034;18.576;2022-10-31T03:32:31;10.84;95.54
70928;SHT31;58587;53.034;18.576;2022-10-31T03:35:00;10.84;95.34
70928;SHT31;58587;53.034;18.576;2022-10-31T03:37:29;10.86;95.45
70928;SHT31;58587;53.034;18.576;2022-10-31T03:39:56;10.85;95.61
70928;SHT31;58587;53.034;18.576;2022-10-31T03:42:25;10.89;95.52
70928;SHT31;58587;53.034;18.576;2022-10-31T03:44:55;10.86;95.71
70928;SHT31;58587;53.034;18.576;2022-10-31T03:47:22;10.86;95.48
70928;SHT31;58587;53.034;18.576;2022-10-31T03:49:47;10.89;95.36
70928;SHT31;58587;53.034;18.576;2022-10-31T03:52:28;10.88;95.23
70928;SHT31;58587;53.034;18.576;2022-10-31T03:55:18;10.91;95.14
70928;SHT31;58587;53.034;18.576;2022-10-31T03:57:58;10.89;95.03
70928;SHT31;58587;53.034;18.576;2022-10-31T04:00:25;10.92;95.21
70928;SHT31;58587;53.034;18.576;2022-10-31T04:03:06;10.94;95.42
70928;SHT31;58587;53.034;18.576;2022-10-31T04:05:33;10.96;95.50
70928;SHT31;58587;53.034;18.576;2022-10-31T04:08:00;10.95;95.24
70928;SHT31;58587;53.034;18.576;2022-10-31T04:10:28;10.95;95.15
70928;SHT31;58587;53.034;18.576;2022-10-31T04:12:59;10.98;94.95
70928;SHT31;58587;53.034;18.576;2022-10-31T04:15:27;10.95;95.04
70928;SHT31;58587;53.034;18.576;2022-10-31T04:17:55;10.96;94.96
70928;SHT31;58587;53.034;18.576;2022-10-31T04:20:36;10.96;94.97
70928;SHT31;58587;53.034;18.576;2022-10-31T04:23:03;10.96;95.10
70928;SHT31;58587;53.034;18.576;2022-10-31T04:25:29;10.89;95.09
70928;SHT31;58587;53.034;18.576;2022-10-31T04:27:54;10.91;95.11
70928;SHT31;58587;53.034;18.576;2022-10-31T04:30:20;10.94;95.01
70928;SHT31;58587;53.034;18.576;2022-10-31T04:32:45;10.92;94.99
70928;SHT31;58587;53.034;18.576;2022-10-31T04:35:10;10.91;94.95
70928;SHT31;58587;53.034;18.576;2022-10-31T04:37:36;10.89;94.98
70928;SHT31;58587;53.034;18.576;2022-10-31T04:40:01;10.89;95.03
70928;SHT31;58587;53.034;18.576;2022-10-31T04:42:29;10.91;95.21
70928;SHT31;58587;53.034;18.576;2022-10-31T04:44:55;10.91;95.16
70928;SHT31;58587;53.034;18.576;2022-10-31T04:47:20;10.91;94.90
70928;SHT31;58587;53.034;18.576;2022-10-31T04:49:45;10.89;94.81
70928;SHT31;58587;53.034;18.576;2022-10-31T04:52:11;10.89;94.78
70928;SHT31;58587;53.034;18.576;2022-10-31T04:54:36;10.88;94.87
70928;SHT31;58587;53.034;18.576;2022-10-31T04:57:01;10.86;94.94
70928;SHT31;58587;53.034;18.576;2022-10-31T04:59:26;10.81;94.91
70928;SHT31;58587;53.034;18.576;2022-10-31T05:01:52;10.79;95.10
70928;SHT31;58587;53.034;18.576;2022-10-31T05:04:17;10.79;95.22
70928;SHT31;58587;53.034;18.576;2022-10-31T05:06:42;10.79;95.37
70928;SHT31;58587;53.034;18.576;2022-10-31T05:09:08;10.78;95.38
70928;SHT31;58587;53.034;18.576;2022-10-31T05:11:33;10.81;95.28
70928;SHT31;58587;53.034;18.576;2022-10-31T05:13:58;10.78;95.06
70928;SHT31;58587;53.034;18.576;2022-10-31T05:16:23;10.81;95.26
70928;SHT31;58587;53.034;18.576;2022-10-31T05:18:49;10.79;95.70
70928;SHT31;58587;53.034;18.576;2022-10-31T05:21:14;10.82;95.60
70928;SHT31;58587;53.034;18.576;2022-10-31T05:23:39;10.82;95.58
70928;SHT31;58587;53.034;18.576;2022-10-31T05:26:05;10.81;95.80
70928;SHT31;58587;53.034;18.576;2022-10-31T05:28:30;10.84;95.86
70928;SHT31;58587;53.034;18.576;2022-10-31T05:30:55;10.86;95.64
70928;SHT31;58587;53.034;18.576;2022-10-31T05:33:20;10.86;95.57
70928;SHT31;58587;53.034;18.576;2022-10-31T05:35:46;10.86;95.61
70928;SHT31;58587;53.034;18.576;2022-10-31T05:38:11;10.86;95.67
70928;SHT31;58587;53.034;18.576;2022-10-31T05:40:36;10.89;95.87
70928;SHT31;58587;53.034;18.576;2022-10-31T05:43:02;10.92;95.82
70928;SHT31;58587;53.034;18.576;2022-10-31T05:45:27;10.94;95.70
70928;SHT31;58587;53.034;18.576;2022-10-31T05:47:57;10.92;95.81
70928;SHT31;58587;53.034;18.576;2022-10-31T05:50:23;10.94;95.67
70928;SHT31;58587;53.034;18.576;2022-10-31T05:53:00;10.94;95.72
70928;SHT31;58587;53.034;18.576;2022-10-31T05:55:26;10.98;95.77
70928;SHT31;58587;53.034;18.576;2022-10-31T05:57:53;10.98;95.66
70928;SHT31;58587;53.034;18.576;2022-10-31T06:00:19;10.99;95.70
70928;SHT31;58587;53.034;18.576;2022-10-31T06:02:45;11.02;95.61
70928;SHT31;58587;53.034;18.576;2022-10-31T06:05:10;11.01;95.78
70928;SHT31;58587;53.034;18.576;2022-10-31T06:07:36;11.02;95.72
70928;SHT31;58587;53.034;18.576;2022-10-31T06:10:04;11.05;95.61
70928;SHT31;58587;53.034;18.576;2022-10-31T06:12:30;11.02;96.11
70928;SHT31;58587;53.034;18.576;2022-10-31T06:14:55;11.08;96.40
70928;SHT31;58587;53.034;18.576;2022-10-31T06:17:20;11.11;96.20
70928;SHT31;58587;53.034;18.576;2022-10-31T06:19:46;11.11;96.44
70928;SHT31;58587;53.034;18.576;2022-10-31T06:22:11;11.14;96.11
70928;SHT31;58587;53.034;18.576;2022-10-31T06:24:37;11.16;96.05
70928;SHT31;58587;53.034;18.576;2022-10-31T06:27:03;11.16;95.93
70928;SHT31;58587;53.034;18.576;2022-10-31T06:29:29;11.18;95.99
70928;SHT31;58587;53.034;18.576;2022-10-31T06:31:54;11.11;96.12
70928;SHT31;58587;53.034;18.576;2022-10-31T06:34:20;11.15;96.42
70928;SHT31;58587;53.034;18.576;2022-10-31T06:36:46;11.15;96.22
70928;SHT31;58587;53.034;18.576;2022-10-31T06:39:11;11.14;96.11
70928;SHT31;58587;53.034;18.576;2022-10-31T06:41:37;11.18;96.04
70928;SHT31;58587;53.034;18.576;2022-10-31T06:44:02;11.18;95.90
70928;SHT31;58587;53.034;18.576;2022-10-31T06:46:28;11.22;95.62
70928;SHT31;58587;53.034;18.576;2022-10-31T06:48:53;11.20;95.64
70928;SHT31;58587;53.034;18.576;2022-10-31T06:51:18;11.20;95.46
70928;SHT31;58587;53.034;18.576;2022-10-31T06:53:44;11.26;95.29
70928;SHT31;58587;53.034;18.576;2022-10-31T06:56:09;11.23;95.37
70928;SHT31;58587;53.034;18.576;2022-10-31T06:58:34;11.25;95.77
70928;SHT31;58587;53.034;18.576;2022-10-31T07:01:00;11.28;95.66
70928;SHT31;58587;53.034;18.576;2022-10-31T07:03:26;11.29;95.53
70928;SHT31;58587;53.034;18.576;2022-10-31T07:05:51;11.29;95.78
70928;SHT31;58587;53.034;18.576;2022-10-31T07:08:16;11.33;95.53
70928;SHT31;58587;53.034;18.576;2022-10-31T07:10:43;11.36;95.83
70928;SHT31;58587;53.034;18.576;2022-10-31T07:13:11;11.33;95.62
70928;SHT31;58587;53.034;18.576;2022-10-31T07:15:39;11.39;95.77
70928;SHT31;58587;53.034;18.576;2022-10-31T07:18:06;11.40;95.73
70928;SHT31;58587;53.034;18.576;2022-10-31T07:20:32;11.43;95.67
70928;SHT31;58587;53.034;18.576;2022-10-31T07:22:58;11.42;95.66
70928;SHT31;58587;53.034;18.576;2022-10-31T07:25:24;11.46;95.77
70928;SHT31;58587;53.034;18.576;2022-10-31T07:27:49;11.49;95.69
70928;SHT31;58587;53.034;18.576;2022-10-31T07:30:14;11.50;95.60
70928;SHT31;58587;53.034;18.576;2022-10-31T07:32:44;11.52;95.50
70928;SHT31;58587;53.034;18.576;2022-10-31T07:35:11;11.50;95.66
70928;SHT31;58587;53.034;18.576;2022-10-31T07:37:37;11.52;95.82
70928;SHT31;58587;53.034;18.576;2022-10-31T07:40:04;11.50;95.88
70928;SHT31;58587;53.034;18.576;2022-10-31T07:45:03;11.53;95.96
70928;SHT31;58587;53.034;18.576;2022-10-31T07:47:29;11.52;96.09
70928;SHT31;58587;53.034;18.576;2022-10-31T07:49:54;11.44;95.80
70928;SHT31;58587;53.034;18.576;2022-10-31T07:52:19;11.43;96.23
70928;SHT31;58587;53.034;18.576;2022-10-31T07:54:44;11.43;96.16
70928;SHT31;58587;53.034;18.576;2022-10-31T07:57:10;11.49;96.02
70928;SHT31;58587;53.034;18.576;2022-10-31T07:59:35;11.53;95.78
70928;SHT31;58587;53.034;18.576;2022-10-31T08:02:00;11.56;95.53
70928;SHT31;58587;53.034;18.576;2022-10-31T08:04:26;11.56;95.53
70928;SHT31;58587;53.034;18.576;2022-10-31T08:06:51;11.60;95.39
70928;SHT31;58587;53.034;18.576;2022-10-31T08:09:16;11.60;95.30
70928;SHT31;58587;53.034;18.576;2022-10-31T08:11:41;11.60;95.42
70928;SHT31;58587;53.034;18.576;2022-10-31T08:14:07;11.53;95.59
70928;SHT31;58587;53.034;18.576;2022-10-31T08:16:32;11.50;95.86
70928;SHT31;58587;53.034;18.576;2022-10-31T08:18:57;11.56;95.98
70928;SHT31;58587;53.034;18.576;2022-10-31T08:21:22;11.57;96.10
70928;SHT31;58587;53.034;18.576;2022-10-31T08:23:48;11.65;95.99
70928;SHT31;58587;53.034;18.576;2022-10-31T08:26:13;11.53;95.63
70928;SHT31;58587;53.034;18.576;2022-10-31T08:28:38;11.49;96.02
70928;SHT31;58587;53.034;18.576;2022-10-31T08:31:04;11.55;96.03
70928;SHT31;58587;53.034;18.576;2022-10-31T08:33:30;11.55;95.70
70928;SHT31;58587;53.034;18.576;2022-10-31T08:35:57;11.57;96.11
70928;SHT31;58587;53.034;18.576;2022-10-31T08:38:23;11.56;96.22
70928;SHT31;58587;53.034;18.576;2022-10-31T08:40:48;11.56;96.29
70928;SHT31;58587;53.034;18.576;2022-10-31T08:43:16;11.63;96.24
70928;SHT31;58587;53.034;18.576;2022-10-31T08:45:42;11.67;95.91
70928;SHT31;58587;53.034;18.576;2022-10-31T08:48:12;11.66;95.90
70928;SHT31;58587;53.034;18.576;2022-10-31T08:50:39;11.63;95.81
70928;SHT31;58587;53.034;18.576;2022-10-31T08:53:15;11.53;95.45
70928;SHT31;58587;53.034;18.576;2022-10-31T08:55:41;11.56;95.61
70928;SHT31;58587;53.034;18.576;2022-10-31T08:58:11;11.60;95.81
70928;SHT31;58587;53.034;18.576;2022-10-31T09:00:37;11.62;95.84
70928;SHT31;58587;53.034;18.576;2022-10-31T09:03:14;11.62;95.76
70928;SHT31;58587;53.034;18.576;2022-10-31T09:05:40;11.69;95.58
70928;SHT31;58587;53.034;18.576;2022-10-31T09:08:06;11.63;95.63
70928;SHT31;58587;53.034;18.576;2022-10-31T09:10:34;11.60;95.70
70928;SHT31;58587;53.034;18.576;2022-10-31T09:15:32;11.69;95.86
70928;SHT31;58587;53.034;18.576;2022-10-31T09:17:57;11.69;95.62
70928;SHT31;58587;53.034;18.576;2022-10-31T09:20:23;11.66;95.41
70928;SHT31;58587;53.034;18.576;2022-10-31T09:22:55;11.67;95.88
70928;SHT31;58587;53.034;18.576;2022-10-31T09:25:21;11.71;95.82
70928;SHT31;58587;53.034;18.576;2022-10-31T09:27:46;11.74;95.79
70928;SHT31;58587;53.034;18.576;2022-10-31T09:30:12;11.76;95.92
70928;SHT31;58587;53.034;18.576;2022-10-31T09:32:37;11.81;95.77
70928;SHT31;58587;53.034;18.576;2022-10-31T09:35:03;11.90;95.87
70928;SHT31;58587;53.034;18.576;2022-10-31T09:37:29;11.90;95.69
70928;SHT31;58587;53.034;18.576;2022-10-31T09:39:54;11.87;95.98
70928;SHT31;58587;53.034;18.576;2022-10-31T09:44:49;11.83;95.80
70928;SHT31;58587;53.034;18.576;2022-10-31T09:47:31;11.86;95.73
70928;SHT31;58587;53.034;18.576;2022-10-31T09:50:22;11.89;96.05
70928;SHT31;58587;53.034;18.576;2022-10-31T09:53:21;11.90;95.90
70928;SHT31;58587;53.034;18.576;2022-10-31T09:55:49;11.90;95.88
70928;SHT31;58587;53.034;18.576;2022-10-31T09:58:18;11.94;95.73
70928;SHT31;58587;53.034;18.576;2022-10-31T10:00:45;12.00;95.94
70928;SHT31;58587;53.034;18.576;2022-10-31T10:03:39;12.00;95.51
70928;SHT31;58587;53.034;18.576;2022-10-31T10:06:22;12.02;95.64
70928;SHT31;58587;53.034;18.576;2022-10-31T10:08:48;11.98;95.24
70928;SHT31;58587;53.034;18.576;2022-10-31T10:14:29;11.98;95.28
70928;SHT31;58587;53.034;18.576;2022-10-31T10:17:23;11.89;95.35
70928;SHT31;58587;53.034;18.576;2022-10-31T10:20:12;11.91;95.23
70928;SHT31;58587;53.034;18.576;2022-10-31T10:22:43;11.87;95.81
70928;SHT31;58587;53.034;18.576;2022-10-31T10:25:15;11.91;95.75
70928;SHT31;58587;53.034;18.576;2022-10-31T10:27:46;11.98;95.27
70928;SHT31;58587;53.034;18.576;2022-10-31T10:30:23;12.02;95.62
70928;SHT31;58587;53.034;18.576;2022-10-31T10:32:52;12.07;95.48
70928;SHT31;58587;53.034;18.576;2022-10-31T10:37:50;12.13;95.46
70928;SHT31;58587;53.034;18.576;2022-10-31T10:40:24;12.13;95.55
70928;SHT31;58587;53.034;18.576;2022-10-31T10:45:41;12.02;95.30
70928;SHT31;58587;53.034;18.576;2022-10-31T10:54:33;12.01;94.88
70928;SHT31;58587;53.034;18.576;2022-10-31T11:02:44;12.00;94.65
70928;SHT31;58587;53.034;18.576;2022-10-31T11:05:18;12.02;95.23
70928;SHT31;58587;53.034;18.576;2022-10-31T11:07:45;12.02;95.14
70928;SHT31;58587;53.034;18.576;2022-10-31T11:10:14;12.07;95.14
70928;SHT31;58587;53.034;18.576;2022-10-31T11:12:41;12.13;95.34
70928;SHT31;58587;53.034;18.576;2022-10-31T11:15:21;12.05;94.83
70928;SHT31;58587;53.034;18.576;2022-10-31T11:17:50;12.02;95.34
70928;SHT31;58587;53.034;18.576;2022-10-31T11:22:43;12.02;95.45
70928;SHT31;58587;53.034;18.576;2022-10-31T11:25:23;12.00;95.51
70928;SHT31;58587;53.034;18.576;2022-10-31T11:28:04;12.00;95.75
70928;SHT31;58587;53.034;18.576;2022-10-31T11:30:35;12.00;95.97
70928;SHT31;58587;53.034;18.576;2022-10-31T11:33:00;11.98;95.75
70928;SHT31;58587;53.034;18.576;2022-10-31T11:35:26;12.00;95.77
70928;SHT31;58587;53.034;18.576;2022-10-31T11:37:53;11.97;95.50
70928;SHT31;58587;53.034;18.576;2022-10-31T11:40:22;11.97;95.90
70928;SHT31;58587;53.034;18.576;2022-10-31T11:42:51;12.02;95.90
70928;SHT31;58587;53.034;18.576;2022-10-31T11:45:27;12.05;95.85
70928;SHT31;58587;53.034;18.576;2022-10-31T11:47:55;12.08;95.84
70928;SHT31;58587;53.034;18.576;2022-10-31T11:50:32;12.05;95.58
70928;SHT31;58587;53.034;18.576;2022-10-31T11:52:58;12.05;95.82
70928;SHT31;58587;53.034;18.576;2022-10-31T11:55:32;12.11;95.36
70928;SHT31;58587;53.034;18.576;2022-10-31T11:57:58;12.14;95.63
70928;SHT31;58587;53.034;18.576;2022-10-31T12:00:29;12.22;95.61
70928;SHT31;58587;53.034;18.576;2022-10-31T12:03:11;12.31;95.37
70928;SHT31;58587;53.034;18.576;2022-10-31T12:05:39;12.31;95.44
70928;SHT31;58587;53.034;18.576;2022-10-31T12:08:08;12.30;95.36
70928;SHT31;58587;53.034;18.576;2022-10-31T12:11:27;12.32;95.56
70928;SHT31;58587;53.034;18.576;2022-10-31T12:16:11;12.24;95.12
70928;SHT31;58587;53.034;18.576;2022-10-31T12:19:04;12.17;95.40
70928;SHT31;58587;53.034;18.576;2022-10-31T12:21:47;12.20;95.62
70928;SHT31;58587;53.034;18.576;2022-10-31T12:24:33;12.27;95.91
70928;SHT31;58587;53.034;18.576;2022-10-31T12:38:37;12.27;95.70
70928;SHT31;58587;53.034;18.576;2022-10-31T12:48:57;12.18;95.99
70928;SHT31;58587;53.034;18.576;2022-10-31T12:51:40;12.21;96.04
70928;SHT31;58587;53.034;18.576;2022-10-31T12:59:51;12.25;95.90
70928;SHT31;58587;53.034;18.576;2022-10-31T13:02:37;12.22;95.77
70928;SHT31;58587;53.034;18.576;2022-10-31T13:05:13;12.24;96.10
70928;SHT31;58587;53.034;18.576;2022-10-31T13:07:47;12.18;95.73
70928;SHT31;58587;53.034;18.576;2022-10-31T13:10:18;12.24;95.81
70928;SHT31;58587;53.034;18.576;2022-10-31T13:12:47;12.14;96.39
70928;SHT31;58587;53.034;18.576;2022-10-31T13:15:26;12.21;96.50
70928;SHT31;58587;53.034;18.576;2022-10-31T13:18:09;12.17;96.21
70928;SHT31;58587;53.034;18.576;2022-10-31T13:20:42;12.18;96.36
70928;SHT31;58587;53.034;18.576;2022-10-31T13:23:29;12.16;96.39
70928;SHT31;58587;53.034;18.576;2022-10-31T13:25:56;12.16;96.48
70928;SHT31;58587;53.034;18.576;2022-10-31T13:28:35;12.18;96.10
70928;SHT31;58587;53.034;18.576;2022-10-31T13:31:02;12.14;96.25
70928;SHT31;58587;53.034;18.576;2022-10-31T13:33:38;12.16;96.39
70928;SHT31;58587;53.034;18.576;2022-10-31T13:38:56;12.17;96.45
70928;SHT31;58587;53.034;18.576;2022-10-31T13:41:31;12.22;96.43
70928;SHT31;58587;53.034;18.576;2022-10-31T13:44:10;12.24;96.33
70928;SHT31;58587;53.034;18.576;2022-10-31T13:46:38;12.18;96.31
70928;SHT31;58587;53.034;18.576;2022-10-31T13:49:23;12.18;96.47
70928;SHT31;58587;53.034;18.576;2022-10-31T13:51:49;12.20;96.58
70928;SHT31;58587;53.034;18.576;2022-10-31T13:54:32;12.18;96.54
70928;SHT31;58587;53.034;18.576;2022-10-31T13:56:57;12.20;96.48
70928;SHT31;58587;53.034;18.576;2022-10-31T13:59:30;12.22;96.46
70928;SHT31;58587;53.034;18.576;2022-10-31T14:02:00;12.24;96.42
70928;SHT31;58587;53.034;18.576;2022-10-31T14:04:38;12.25;96.29
70928;SHT31;58587;53.034;18.576;2022-10-31T14:07:16;12.25;96.24
70928;SHT31;58587;53.034;18.576;2022-10-31T14:14:59;12.27;96.28
70928;SHT31;58587;53.034;18.576;2022-10-31T14:17:27;12.25;96.34
70928;SHT31;58587;53.034;18.576;2022-10-31T14:20:20;12.28;96.29
70928;SHT31;58587;53.034;18.576;2022-10-31T14:22:46;12.28;96.30
70928;SHT31;58587;53.034;18.576;2022-10-31T14:25:33;12.24;96.07
70928;SHT31;58587;53.034;18.576;2022-10-31T14:28:01;12.25;96.28
70928;SHT31;58587;53.034;18.576;2022-10-31T14:30:28;12.24;96.21
70928;SHT31;58587;53.034;18.576;2022-10-31T14:33:16;12.27;96.16
70928;SHT31;58587;53.034;18.576;2022-10-31T14:36:00;12.28;96.12
70928;SHT31;58587;53.034;18.576;2022-10-31T14:38:52;12.28;96.03
70928;SHT31;58587;53.034;18.576;2022-10-31T14:41:34;12.30;96.13
70928;SHT31;58587;53.034;18.576;2022-10-31T14:44:11;12.30;95.87
70928;SHT31;58587;53.034;18.576;2022-10-31T14:47:16;12.25;95.97
70928;SHT31;58587;53.034;18.576;2022-10-31T14:50:07;12.24;96.03
70928;SHT31;58587;53.034;18.576;2022-10-31T14:52:36;12.24;96.10
70928;SHT31;58587;53.034;18.576;2022-10-31T14:55:05;12.24;96.11
70928;SHT31;58587;53.034;18.576;2022-10-31T14:57:34;12.20;96.17
70928;SHT31;58587;53.034;18.576;2022-10-31T15:00:05;12.17;96.27
70928;SHT31;58587;53.034;18.576;2022-10-31T15:02:36;12.17;96.48
70928;SHT31;58587;53.034;18.576;2022-10-31T15:05:08;12.18;96.45
70928;SHT31;58587;53.034;18.576;2022-10-31T15:07:34;12.14;96.56
70928;SHT31;58587;53.034;18.576;2022-10-31T15:10:19;12.13;96.52
70928;SHT31;58587;53.034;18.576;2022-10-31T15:12:45;12.17;96.41
70928;SHT31;58587;53.034;18.576;2022-10-31T15:15:12;12.18;96.29
70928;SHT31;58587;53.034;18.576;2022-10-31T15:17:43;12.21;96.36
70928;SHT31;58587;53.034;18.576;2022-10-31T15:20:18;12.21;96.22
70928;SHT31;58587;53.034;18.576;2022-10-31T15:22:44;12.18;96.30
70928;SHT31;58587;53.034;18.576;2022-10-31T15:25:19;12.22;96.18
70928;SHT31;58587;53.034;18.576;2022-10-31T15:27:46;12.20;96.13
70928;SHT31;58587;53.034;18.576;2022-10-31T15:32:45;12.20;96.17
70928;SHT31;58587;53.034;18.576;2022-10-31T15:35:22;12.17;96.06
70928;SHT31;58587;53.034;18.576;2022-10-31T15:37:48;12.17;96.03
70928;SHT31;58587;53.034;18.576;2022-10-31T15:40:16;12.18;96.16
70928;SHT31;58587;53.034;18.576;2022-10-31T15:42:42;12.18;96.32
70928;SHT31;58587;53.034;18.576;2022-10-31T15:47:36;12.16;96.32
70928;SHT31;58587;53.034;18.576;2022-10-31T15:50:04;12.13;96.38
70928;SHT31;58587;53.034;18.576;2022-10-31T15:52:47;12.11;96.22
70928;SHT31;58587;53.034;18.576;2022-10-31T15:55:20;12.10;96.19
70928;SHT31;58587;53.034;18.576;2022-10-31T15:57:49;12.11;95.98
70928;SHT31;58587;53.034;18.576;2022-10-31T16:00:29;12.10;95.92
70928;SHT31;58587;53.034;18.576;2022-10-31T16:05:48;12.11;96.02
70928;SHT31;58587;53.034;18.576;2022-10-31T16:11:00;12.07;96.04
70928;SHT31;58587;53.034;18.576;2022-10-31T16:13:30;12.10;96.00
70928;SHT31;58587;53.034;18.576;2022-10-31T16:16:11;12.10;96.15
70928;SHT31;58587;53.034;18.576;2022-10-31T16:18:38;12.10;96.08
70928;SHT31;58587;53.034;18.576;2022-10-31T16:21:05;12.07;95.92
70928;SHT31;58587;53.034;18.576;2022-10-31T16:23:31;12.07;95.91
70928;SHT31;58587;53.034;18.576;2022-10-31T16:25:56;12.10;96.12
70928;SHT31;58587;53.034;18.576;2022-10-31T16:28:25;12.07;96.24
70928;SHT31;58587;53.034;18.576;2022-10-31T16:30:54;12.08;96.38
70928;SHT31;58587;53.034;18.576;2022-10-31T16:38:52;12.07;96.44
70928;SHT31;58587;53.034;18.576;2022-10-31T16:41:18;12.07;96.40
70928;SHT31;58587;53.034;18.576;2022-10-31T16:43:43;12.07;96.44
70928;SHT31;58587;53.034;18.576;2022-10-31T16:46:14;12.10;96.44
70928;SHT31;58587;53.034;18.576;2022-10-31T16:48:39;12.08;96.25
70928;SHT31;58587;53.034;18.576;2022-10-31T16:51:07;12.07;96.32
70928;SHT31;58587;53.034;18.576;2022-10-31T16:53:32;12.07;96.46
70928;SHT31;58587;53.034;18.576;2022-10-31T16:55:58;12.07;96.37
70928;SHT31;58587;53.034;18.576;2022-10-31T16:58:29;12.07;96.36
70928;SHT31;58587;53.034;18.576;2022-10-31T17:00:56;12.07;96.48
70928;SHT31;58587;53.034;18.576;2022-10-31T17:03:22;12.02;96.36
70928;SHT31;58587;53.034;18.576;2022-10-31T17:05:47;12.08;96.38
70928;SHT31;58587;53.034;18.576;2022-10-31T17:08:13;12.07;96.50
70928;SHT31;58587;53.034;18.576;2022-10-31T17:10:39;12.01;96.35
70928;SHT31;58587;53.034;18.576;2022-10-31T17:13:07;11.98;96.27